Time;durP1;ratioP1;P1;durP2;ratioP2;P2;SDS_P1;SDS_P2;PMS_P1;PMS_P2;Temp;Humidity;BMP_temperature;BMP_pressure;BME280_temperature;BME280_humidity;BME280_pressure;Samples;Min_cycle;Max_cycle;Signal;HPM_P1;HPM_P2
2021/04/08 00:02:12;;;;;;;42.43;19.80;;;;;;;-0.71;71.21;98444.46;2211152;80;21182;-78
2021/04/08 00:05:13;;;;;;;42.23;21.07;;;;;;;-0.74;71.36;98446.87;2210930;80;21389;-79
2021/04/08 00:08:14;;;;;;;45.70;21.60;;;;;;;-0.75;71.20;98451.52;2210346;80;21447;-79
2021/04/08 00:11:15;;;;;;;43.07;21.23;;;;;;;-0.76;71.32;98447.60;2210749;81;21169;-78
2021/04/08 00:14:16;;;;;;;41.67;22.27;;;;;;;-0.80;71.30;98446.56;2210259;80;21137;-78
2021/04/08 00:17:17;;;;;;;45.90;23.13;;;;;;;-0.79;71.55;98448.73;2210265;81;21261;-79
2021/04/08 00:20:19;;;;;;;44.20;22.03;;;;;;;-0.78;71.47;98452.66;2210217;80;21269;-79
2021/04/08 00:23:20;;;;;;;41.47;21.83;;;;;;;-0.78;71.67;98450.09;2210648;80;21261;-80
2021/04/08 00:26:21;;;;;;;41.13;21.00;;;;;;;-0.83;71.78;98459.23;2210819;80;21102;-80
2021/04/08 00:29:22;;;;;;;40.20;21.30;;;;;;;-0.85;71.93;98450.59;2210307;80;21272;-79
2021/04/08 00:32:23;;;;;;;42.73;22.10;;;;;;;-0.87;71.82;98453.84;2210450;80;21130;-80
2021/04/08 00:35:24;;;;;;;43.17;21.93;;;;;;;-0.89;71.85;98454.17;2210335;80;21546;-78
2021/04/08 00:38:25;;;;;;;39.77;22.37;;;;;;;-0.91;72.04;98452.81;2210030;80;21150;-78
2021/04/08 00:41:26;;;;;;;46.60;22.40;;;;;;;-0.92;72.01;98462.58;2210143;80;21190;-79
2021/04/08 00:44:27;;;;;;;75.43;34.70;;;;;;;-0.91;72.04;98457.05;2210328;80;21126;-79
2021/04/08 00:47:28;;;;;;;49.03;24.33;;;;;;;-0.93;72.01;98459.54;2210221;80;21106;-79
2021/04/08 00:50:29;;;;;;;42.63;23.20;;;;;;;-0.94;72.01;98462.02;2210063;80;21248;-79
2021/04/08 00:53:30;;;;;;;43.73;23.83;;;;;;;-1.00;71.91;98460.91;2210194;80;21130;-78
2021/04/08 00:56:31;;;;;;;43.77;23.47;;;;;;;-1.00;72.03;98464.75;2210194;80;21245;-79
2021/04/08 00:59:32;;;;;;;44.57;24.53;;;;;;;-1.00;72.01;98461.31;2210167;80;21150;-78
2021/04/08 01:02:33;;;;;;;44.40;23.27;;;;;;;-1.00;72.02;98462.20;2210398;80;21578;-79
2021/04/08 01:05:34;;;;;;;48.90;23.17;;;;;;;-0.99;71.94;98470.36;2210446;80;21149;-78
2021/04/08 01:08:35;;;;;;;48.27;25.33;;;;;;;-1.00;72.04;98466.44;2210243;80;21140;-78
2021/04/08 01:11:36;;;;;;;51.53;24.90;;;;;;;-1.01;72.02;98468.52;2210463;80;21138;-78
2021/04/08 01:14:37;;;;;;;46.60;24.20;;;;;;;-1.03;72.03;98469.73;2210251;80;21142;-79
2021/04/08 01:17:38;;;;;;;47.57;25.43;;;;;;;-1.03;72.01;98463.72;2210051;80;21256;-78
2021/04/08 01:20:39;;;;;;;58.80;27.03;;;;;;;-1.04;71.90;98458.12;2210167;80;21300;-78
2021/04/08 01:23:40;;;;;;;46.93;24.90;;;;;;;-1.02;71.92;98464.20;2210175;80;21280;-78
2021/04/08 01:26:41;;;;;;;49.30;25.83;;;;;;;-1.00;71.77;98466.03;2210272;80;21106;-78
2021/04/08 01:29:42;;;;;;;52.57;23.50;;;;;;;-1.00;71.73;98463.48;2209911;80;21845;-78
2021/04/08 01:32:43;;;;;;;49.43;23.37;;;;;;;-0.99;71.76;98465.23;2210146;80;21256;-78
2021/04/08 01:35:44;;;;;;;53.13;23.97;;;;;;;-1.02;71.63;98465.08;2210156;80;21133;-78
2021/04/08 01:38:45;;;;;;;50.53;24.43;;;;;;;-1.03;71.68;98459.88;2209978;80;21253;-78
2021/04/08 01:41:46;;;;;;;48.77;22.63;;;;;;;-1.04;71.76;98459.00;2210102;80;21289;-78
2021/04/08 01:44:47;;;;;;;43.90;21.23;;;;;;;-1.03;71.52;98458.20;2210428;80;21138;-78
2021/04/08 01:47:48;;;;;;;43.03;23.30;;;;;;;-1.06;71.49;98458.44;2216444;80;21260;-78
2021/04/08 01:50:49;;;;;;;46.63;21.87;;;;;;;-1.08;71.65;98454.92;2220740;80;21239;-78
2021/04/08 01:53:50;;;;;;;48.93;22.73;;;;;;;-1.10;71.67;98447.56;2220781;80;21122;-78
2021/04/08 01:56:51;;;;;;;46.47;23.53;;;;;;;-1.13;71.64;98446.13;2220931;80;21135;-79
2021/04/08 01:59:53;;;;;;;43.77;23.07;;;;;;;-1.13;71.59;98449.97;2220664;80;21138;-79
2021/04/08 02:02:54;;;;;;;47.63;22.87;;;;;;;-1.14;71.55;98456.77;2221336;80;21133;-79
2021/04/08 02:05:55;;;;;;;43.27;22.97;;;;;;;-1.13;71.49;98474.30;2220746;80;21272;-79
2021/04/08 02:08:56;;;;;;;46.33;23.13;;;;;;;-1.15;71.53;98470.38;2220579;80;21302;-79
2021/04/08 02:11:57;;;;;;;43.03;21.80;;;;;;;-1.12;71.53;98465.81;2220959;80;21126;-79
2021/04/08 02:14:58;;;;;;;44.73;20.57;;;;;;;-1.10;71.54;98464.21;2220930;80;21553;-79
2021/04/08 02:17:59;;;;;;;44.60;22.13;;;;;;;-1.08;71.64;98465.17;2221010;80;21260;-78
2021/04/08 02:21:00;;;;;;;48.00;22.70;;;;;;;-1.09;71.55;98467.25;2220753;80;21283;-80
2021/04/08 02:24:01;;;;;;;45.40;23.73;;;;;;;-1.05;71.71;98466.20;2220842;80;21547;-78
2021/04/08 02:27:02;;;;;;;46.10;24.23;;;;;;;-1.00;71.64;98465.16;2221571;80;21356;-79
2021/04/08 02:30:03;;;;;;;48.03;23.73;;;;;;;-0.92;71.71;98461.70;2221037;80;21146;-80
2021/04/08 02:33:04;;;;;;;48.17;23.77;;;;;;;-0.81;71.59;98469.16;2221338;80;21257;-79
2021/04/08 02:36:06;;;;;;;45.23;22.47;;;;;;;-0.69;71.57;98463.36;2221131;80;21125;-78
2021/04/08 02:39:07;;;;;;;41.10;21.37;;;;;;;-0.62;71.32;98459.41;2221232;80;21125;-81
2021/04/08 02:42:08;;;;;;;40.87;19.43;;;;;;;-0.54;71.29;98467.48;2221325;80;21279;-80
2021/04/08 02:45:09;;;;;;;46.33;22.40;;;;;;;-0.51;71.23;98467.63;2221269;80;21260;-78
2021/04/08 02:48:10;;;;;;;47.03;22.17;;;;;;;-0.45;71.06;98476.50;2218731;80;21293;-78
2021/04/08 02:51:11;;;;;;;39.97;21.07;;;;;;;-0.40;70.92;98474.16;2217680;80;21581;-78
2021/04/08 02:54:12;;;;;;;41.03;19.30;;;;;;;-0.40;70.87;98469.91;2218123;80;21138;-78
2021/04/08 02:57:13;;;;;;;34.10;18.10;;;;;;;-0.35;70.73;98476.54;2217479;80;21102;-78
2021/04/08 03:00:14;;;;;;;41.67;20.90;;;;;;;-0.34;70.75;98485.59;2217618;80;21432;-78
2021/04/08 03:03:15;;;;;;;39.83;19.23;;;;;;;-0.32;70.71;98485.66;2217605;80;21122;-78
2021/04/08 03:06:16;;;;;;;37.90;20.03;;;;;;;-0.27;70.57;98482.04;2217541;80;21280;-80
2021/04/08 03:09:17;;;;;;;36.70;19.53;;;;;;;-0.29;70.54;98480.68;2217592;80;21253;-79
2021/04/08 03:12:18;;;;;;;40.10;18.43;;;;;;;-0.27;70.61;98484.20;2218300;80;21387;-80
2021/04/08 03:15:19;;;;;;;30.93;18.17;;;;;;;-0.28;70.50;98479.88;2217960;80;21257;-79
2021/04/08 03:18:20;;;;;;;34.97;18.00;;;;;;;-0.26;70.62;98479.95;2217670;80;21252;-79
2021/04/08 03:21:21;;;;;;;37.23;17.93;;;;;;;-0.22;70.58;98487.86;2217746;80;21292;-78
2021/04/08 03:24:23;;;;;;;25.77;14.97;;;;;;;-0.22;70.67;98490.43;2217685;80;21251;-79
2021/04/08 03:27:24;;;;;;;27.60;17.10;;;;;;;-0.19;70.78;98492.27;2217862;80;21141;-80
2021/04/08 03:30:25;;;;;;;23.57;14.20;;;;;;;-0.17;70.94;98495.78;2217771;80;21436;-79
2021/04/08 03:33:26;;;;;;;27.10;16.03;;;;;;;-0.10;71.21;98503.84;2218021;80;21154;-82
2021/04/08 03:36:27;;;;;;;28.50;14.63;;;;;;;-0.07;71.33;98500.55;2218067;80;21256;-79
2021/04/08 03:39:28;;;;;;;26.73;15.50;;;;;;;-0.06;71.72;98498.05;2217737;80;21161;-79
2021/04/08 03:42:29;;;;;;;31.70;17.13;;;;;;;-0.07;71.73;98502.70;2217884;80;21161;-79
2021/04/08 03:45:30;;;;;;;28.63;16.53;;;;;;;-0.05;72.37;98500.21;2217442;80;21240;-77
2021/04/08 03:48:31;;;;;;;28.67;16.07;;;;;;;-0.03;72.50;98499.88;2212522;80;21150;-77
2021/04/08 03:51:32;;;;;;;30.17;16.00;;;;;;;-0.05;73.18;98500.21;2210427;80;21539;-78
2021/04/08 03:54:33;;;;;;;23.13;14.30;;;;;;;-0.04;73.45;98499.00;2210234;80;21111;-77
2021/04/08 03:57:35;;;;;;;26.23;15.63;;;;;;;0.01;73.45;98496.69;2210058;80;21261;-78
2021/04/08 04:00:36;;;;;;;29.60;16.63;;;;;;;0.07;73.54;98493.53;2210703;80;21169;-79
2021/04/08 04:03:37;;;;;;;29.13;18.30;;;;;;;0.11;73.47;98494.16;2210458;80;21106;-79
2021/04/08 04:06:41;;;;;;;56.57;20.70;;;;;;;0.14;73.81;98489.16;2210141;80;21558;-79
2021/04/08 04:09:40;;;;;;;25.13;14.80;;;;;;;0.13;73.87;98490.84;2210105;80;21260;-79
2021/04/08 04:12:42;;;;;;;23.23;13.63;;;;;;;0.14;74.11;98489.16;2210214;80;21134;-78
2021/04/08 04:15:43;;;;;;;26.10;14.13;;;;;;;0.15;74.24;98493.48;2210245;80;21146;-79
2021/04/08 04:18:44;;;;;;;29.57;16.70;;;;;;;0.17;74.63;98494.03;2210155;80;21433;-78
2021/04/08 04:21:45;;;;;;;24.73;14.33;;;;;;;0.23;74.47;98493.03;2210649;80;21173;-79
2021/04/08 04:24:46;;;;;;;27.07;16.10;;;;;;;0.28;74.67;98490.27;2210285;80;21253;-79
2021/04/08 04:27:47;;;;;;;20.80;15.07;;;;;;;0.35;74.56;98497.86;2210118;80;21253;-80
2021/04/08 04:30:48;;;;;;;24.40;14.33;;;;;;;0.41;74.56;98496.85;2211637;80;21409;-80
2021/04/08 04:33:49;;;;;;;27.53;16.63;;;;;;;0.40;74.96;98494.22;2210864;80;21134;-80
2021/04/08 04:36:50;;;;;;;22.63;15.30;;;;;;;0.34;74.85;98499.95;2209875;80;21405;-81
2021/04/08 04:39:51;;;;;;;23.53;15.23;;;;;;;0.29;75.00;98498.45;2210582;80;21397;-80
2021/04/08 04:42:52;;;;;;;25.97;14.87;;;;;;;0.26;75.27;98497.03;2210298;81;21393;-83
2021/04/08 04:45:53;;;;;;;24.80;16.17;;;;;;;0.26;75.33;98506.02;2210615;80;21126;-82
2021/04/08 04:48:54;;;;;;;28.60;16.70;;;;;;;0.25;75.46;98497.83;2216175;80;21408;-81
2021/04/08 04:51:55;;;;;;;24.70;17.20;;;;;;;0.26;75.28;98501.28;2218136;80;21145;-81
2021/04/08 04:54:56;;;;;;;25.87;16.30;;;;;;;0.31;75.32;98507.10;2217922;80;21141;-80
2021/04/08 04:57:57;;;;;;;28.87;14.87;;;;;;;0.37;75.40;98501.38;2218439;80;21132;-79
2021/04/08 05:00:58;;;;;;;30.83;19.37;;;;;;;0.45;75.36;98503.01;2218797;80;21439;-84
2021/04/08 05:03:59;;;;;;;22.20;13.57;;;;;;;0.54;75.43;98511.12;2218801;80;21129;-79
2021/04/08 05:07:02;;;;;;;17.10;13.33;;;;;;;0.59;75.13;98509.24;2218294;80;21629;-80
2021/04/08 05:10:03;;;;;;;14.70;11.67;;;;;;;0.69;75.21;98516.08;2218996;80;21410;-82
2021/04/08 05:13:04;;;;;;;15.83;12.33;;;;;;;0.79;75.42;98515.68;2218609;80;21134;-80
2021/04/08 05:16:05;;;;;;;15.63;11.83;;;;;;;0.86;75.38;98521.16;2219698;80;21137;-82
2021/04/08 05:19:06;;;;;;;14.13;11.63;;;;;;;0.93;75.33;98531.34;2219769;80;21134;-79
2021/04/08 05:22:07;;;;;;;13.10;10.40;;;;;;;0.98;75.24;98531.55;2219674;80;21181;-83
2021/04/08 05:25:08;;;;;;;16.37;13.13;;;;;;;1.00;75.40;98535.94;2219895;80;21142;-80
2021/04/08 05:28:09;;;;;;;20.63;16.00;;;;;;;0.96;75.61;98541.75;2219891;80;21146;-80
2021/04/08 05:31:10;;;;;;;16.50;13.97;;;;;;;0.99;75.37;98541.02;2219932;80;21165;-82
2021/04/08 05:34:11;;;;;;;23.20;14.50;;;;;;;1.14;75.40;98546.42;2219824;80;21137;-80
2021/04/08 05:37:12;;;;;;;15.47;13.67;;;;;;;1.21;75.17;98549.73;2218815;80;21149;-80
2021/04/08 05:40:14;;;;;;;15.23;11.60;;;;;;;1.31;75.15;98546.27;2218869;80;21248;-80
2021/04/08 05:43:15;;;;;;;15.60;13.17;;;;;;;1.39;75.20;98553.91;2218983;80;21385;-80
2021/04/08 05:46:16;;;;;;;13.73;10.30;;;;;;;1.44;74.96;98552.00;2218900;80;21130;-80
2021/04/08 05:49:18;;;;;;;18.23;15.97;;;;;;;1.52;75.08;98562.63;2218680;80;21125;-80
2021/04/08 05:52:18;;;;;;;25.50;16.50;;;;;;;1.62;74.61;98570.31;2218671;80;21142;-78
2021/04/08 05:55:20;;;;;;;15.60;14.03;;;;;;;1.77;74.47;98564.16;2218248;80;21244;-80
2021/04/08 05:58:21;;;;;;;16.00;14.30;;;;;;;1.86;74.22;98568.39;2219334;80;21279;-81
2021/04/08 06:01:22;;;;;;;19.17;16.03;;;;;;;1.98;74.13;98570.59;2218383;80;21170;-80
2021/04/08 06:04:23;;;;;;;13.60;12.13;;;;;;;2.08;73.79;98574.02;2218684;80;21118;-79
2021/04/08 06:07:24;;;;;;;27.80;16.53;;;;;;;2.30;73.42;98577.05;2219559;80;21095;-81
2021/04/08 06:10:25;;;;;;;15.83;13.07;;;;;;;2.51;73.02;98571.86;2220305;80;21102;-83
2021/04/08 06:13:26;;;;;;;13.67;12.37;;;;;;;2.67;72.56;98577.22;2219047;80;21122;-80
2021/04/08 06:16:27;;;;;;;17.40;13.77;;;;;;;2.79;72.30;98588.00;2219629;80;21317;-82
2021/04/08 06:19:28;;;;;;;20.43;14.40;;;;;;;2.89;71.79;98587.52;2218355;80;21423;-79
2021/04/08 06:22:29;;;;;;;27.93;18.27;;;;;;;2.99;71.58;98592.62;2218470;80;21295;-81
2021/04/08 06:25:30;;;;;;;26.27;17.60;;;;;;;3.00;71.37;98596.95;2218134;80;21130;-79
2021/04/08 06:28:31;;;;;;;23.87;19.77;;;;;;;3.12;71.38;98593.13;2218480;80;21439;-81
2021/04/08 06:31:32;;;;;;;36.73;21.70;;;;;;;3.19;70.77;98597.69;2218854;80;21094;-79
2021/04/08 06:34:33;;;;;;;32.30;21.37;;;;;;;3.28;70.80;98604.00;2217546;80;21137;-80
2021/04/08 06:37:34;;;;;;;19.20;17.17;;;;;;;3.29;70.72;98605.35;2217962;80;21131;-79
2021/04/08 06:40:35;;;;;;;25.53;19.90;;;;;;;3.05;70.51;98613.06;2218174;80;21181;-79
2021/04/08 06:43:36;;;;;;;23.17;18.90;;;;;;;2.90;70.97;98613.77;2217293;80;21248;-79
2021/04/08 06:46:37;;;;;;;21.07;17.17;;;;;;;2.87;71.32;98617.12;2217621;80;21137;-77
2021/04/08 06:49:38;;;;;;;15.57;13.97;;;;;;;2.85;71.38;98622.63;2217817;80;21166;-79
2021/04/08 06:52:39;;;;;;;16.73;14.27;;;;;;;2.83;71.53;98626.84;2217356;80;21419;-78
2021/04/08 06:55:43;;;;;;;15.87;14.17;;;;;;;2.82;71.66;98625.49;2217117;80;21277;-78
2021/04/08 06:58:44;;;;;;;20.00;14.67;;;;;;;2.79;71.73;98621.51;2217519;80;21142;-78
2021/04/08 07:01:46;;;;;;;16.40;14.70;;;;;;;2.74;71.90;98633.34;2217565;80;21284;-77
2021/04/08 07:04:47;;;;;;;25.03;19.30;;;;;;;2.66;71.95;98643.34;2216788;80;21256;-78
2021/04/08 07:07:48;;;;;;;26.63;19.50;;;;;;;2.55;72.30;98655.77;2217253;80;21256;-78
2021/04/08 07:10:49;;;;;;;33.97;22.47;;;;;;;2.55;72.97;98661.34;2217214;80;21244;-77
2021/04/08 07:13:50;;;;;;;32.20;22.57;;;;;;;2.56;72.79;98671.70;2217145;80;21138;-78
2021/04/08 07:16:51;;;;;;;29.70;20.10;;;;;;;2.49;72.81;98668.81;2216974;80;21431;-79
2021/04/08 07:19:52;;;;;;;31.30;22.57;;;;;;;2.41;73.78;98674.95;2217007;80;21161;-78
2021/04/08 07:22:53;;;;;;;31.23;20.23;;;;;;;2.31;73.66;98686.09;2217107;80;21288;-78
2021/04/08 07:25:54;;;;;;;30.57;19.57;;;;;;;2.22;73.76;98691.34;2217244;80;21142;-79
2021/04/08 07:28:55;;;;;;;29.50;20.00;;;;;;;2.09;74.06;98689.47;2217333;80;21146;-79
2021/04/08 07:31:56;;;;;;;31.77;20.90;;;;;;;2.08;74.23;98705.33;2217100;80;21276;-79
2021/04/08 07:34:57;;;;;;;24.30;15.30;;;;;;;2.10;74.38;98719.55;2217685;80;21419;-78
2021/04/08 07:37:58;;;;;;;17.77;13.00;;;;;;;2.08;74.31;98730.19;2216856;80;21283;-79
2021/04/08 07:41:02;;;;;;;18.43;13.93;;;;;;;2.14;74.12;98727.87;2217650;80;21157;-79
2021/04/08 07:44:03;;;;;;;19.00;12.40;;;;;;;2.34;73.46;98737.33;2217345;80;21284;-78
2021/04/08 07:47:04;;;;;;;14.67;9.53;;;;;;;2.57;72.72;98742.16;2217369;80;21261;-77
2021/04/08 07:50:05;;;;;;;15.67;9.87;;;;;;;2.74;71.68;98742.47;2211160;80;21130;-78
2021/04/08 07:53:06;;;;;;;12.30;8.73;;;;;;;2.84;71.21;98745.89;2210087;81;21240;-78
2021/04/08 07:56:07;;;;;;;18.63;9.60;;;;;;;2.90;70.68;98756.86;2210498;81;21376;-78
2021/04/08 07:59:08;;;;;;;16.03;8.97;;;;;;;3.00;70.13;98760.28;2210352;81;21146;-82
2021/04/08 08:02:09;;;;;;;17.40;9.57;;;;;;;3.06;70.36;98765.68;2210371;81;21170;-79
2021/04/08 08:05:10;;;;;;;17.43;9.40;;;;;;;3.13;69.94;98772.84;2211182;81;21161;-79
2021/04/08 08:08:11;;;;;;;17.73;8.90;;;;;;;3.31;69.05;98778.25;2210289;81;21091;-80
2021/04/08 08:11:13;;;;;;;16.03;9.00;;;;;;;3.64;68.31;98786.04;2211069;81;21436;-80
2021/04/08 08:14:14;;;;;;;15.50;8.53;;;;;;;3.82;67.86;98783.27;2210994;81;21146;-79
2021/04/08 08:17:15;;;;;;;29.33;14.83;;;;;;;3.88;67.37;98785.20;2210751;81;21106;-79
2021/04/08 08:20:16;;;;;;;23.93;13.70;;;;;;;3.90;67.51;98789.59;2210160;80;21145;-79
2021/04/08 08:23:20;;;;;;;25.30;13.57;;;;;;;3.99;68.04;98793.80;2210232;80;21240;-79
2021/04/08 08:26:21;;;;;;;14.63;9.67;;;;;;;4.07;66.81;98801.84;2210340;80;21277;-78
2021/04/08 08:29:22;;;;;;;14.13;8.97;;;;;;;4.02;66.34;98799.50;2209903;81;21480;-78
2021/04/08 08:32:24;;;;;;;18.00;9.97;;;;;;;4.03;66.77;98805.13;2210308;81;21157;-78
2021/04/08 08:35:25;;;;;;;26.93;13.13;;;;;;;4.20;66.64;98802.75;2210496;81;21164;-79
2021/04/08 08:38:28;;;;;;;18.90;10.57;;;;;;;4.42;66.80;98816.05;2210663;80;21122;-78
2021/04/08 08:41:29;;;;;;;20.87;10.77;;;;;;;4.53;65.75;98819.02;2210164;80;21280;-79
2021/04/08 08:44:30;;;;;;;15.00;8.97;;;;;;;4.63;66.52;98827.56;2210152;80;21104;-79
2021/04/08 08:47:32;;;;;;;12.10;7.00;;;;;;;4.54;64.26;98833.70;2210863;81;21098;-78
2021/04/08 08:50:33;;;;;;;15.20;7.00;;;;;;;4.37;64.85;98832.69;2210783;81;21165;-79
2021/04/08 08:53:34;;;;;;;14.17;8.23;;;;;;;4.38;65.34;98839.62;2210247;81;21419;-79
2021/04/08 08:56:35;;;;;;;12.83;8.03;;;;;;;4.47;65.78;98842.53;2210991;81;21145;-80
2021/04/08 08:59:36;;;;;;;108.17;67.67;;;;;;;4.59;66.07;98845.08;2211115;81;21131;-79
2021/04/08 09:02:38;;;;;;;13.17;7.10;;;;;;;4.70;65.71;98851.09;2211006;80;21528;-79
2021/04/08 09:05:39;;;;;;;13.37;6.87;;;;;;;4.95;64.18;98858.41;2211120;81;21283;-79
2021/04/08 09:08:50;;;;;;;17.82;7.50;;;;;;;4.94;64.53;98856.23;2211283;81;21103;-78
2021/04/08 09:11:48;;;;;;;20.50;9.00;;;;;;;5.22;65.38;98854.60;2210562;80;21173;-78
2021/04/08 09:14:49;;;;;;;33.27;13.80;;;;;;;5.39;65.06;98864.67;2211009;81;21138;-80
2021/04/08 09:17:50;;;;;;;20.53;9.20;;;;;;;5.55;64.09;98862.58;2211192;80;21494;-79
2021/04/08 09:20:52;;;;;;;10.40;6.43;;;;;;;5.62;64.53;98871.00;2210378;81;21276;-79
2021/04/08 09:23:53;;;;;;;16.13;6.43;;;;;;;5.60;62.24;98880.02;2210748;81;21133;-80
2021/04/08 09:26:54;;;;;;;14.57;7.07;;;;;;;5.34;63.11;98874.00;2210233;81;21396;-79
2021/04/08 09:29:57;;;;;;;11.53;6.10;;;;;;;5.42;63.49;98874.25;2210307;81;21285;-79
2021/04/08 09:32:59;;;;;;;19.40;7.00;;;;;;;5.47;61.96;98883.45;2210853;81;21102;-79
2021/04/08 09:36:00;;;;;;;9.57;5.27;;;;;;;5.51;62.20;98882.73;2211289;81;21134;-80
2021/04/08 09:39:01;;;;;;;9.33;5.20;;;;;;;5.70;62.56;98885.95;2210980;81;21130;-79
2021/04/08 09:42:02;;;;;;;12.17;5.70;;;;;;;5.68;61.33;98899.69;2210971;81;21516;-79
2021/04/08 09:45:03;;;;;;;16.20;6.57;;;;;;;5.72;60.92;98889.47;2210019;81;21256;-77
2021/04/08 09:48:05;;;;;;;14.47;6.67;;;;;;;6.39;61.98;98895.87;2210571;80;21276;-78
2021/04/08 09:51:06;;;;;;;10.17;4.87;;;;;;;6.39;61.98;98895.87;2217104;80;21129;-79
2021/04/08 09:54:07;;;;;;;11.47;5.63;;;;;;;6.34;60.13;98906.11;2217830;80;21121;-79
2021/04/08 09:57:08;;;;;;;11.53;5.13;;;;;;;6.34;60.13;98906.11;2218260;80;21124;-80
2021/04/08 10:00:09;;;;;;;13.07;5.93;;;;;;;6.09;60.09;98926.95;2218294;80;21158;-79
2021/04/08 10:03:10;;;;;;;11.77;6.60;;;;;;;5.62;61.37;98920.20;2217487;80;21629;-79
2021/04/08 10:06:11;;;;;;;13.03;6.10;;;;;;;5.35;62.28;98921.47;2218298;80;21154;-78
2021/04/08 10:09:13;;;;;;;13.50;7.00;;;;;;;5.25;62.45;98949.16;2217795;80;21510;-79
2021/04/08 10:12:14;;;;;;;9.93;5.30;;;;;;;5.23;62.88;98933.59;2218267;80;21419;-78
2021/04/08 10:15:15;;;;;;;19.57;8.40;;;;;;;5.43;62.79;98930.38;2218481;80;21141;-78
2021/04/08 10:18:16;;;;;;;14.73;7.60;;;;;;;5.82;63.07;98933.79;2218548;80;21157;-79
2021/04/08 10:21:17;;;;;;;13.57;6.50;;;;;;;6.27;61.24;98927.92;2218375;80;21295;-79
2021/04/08 10:24:18;;;;;;;14.07;6.00;;;;;;;6.61;57.27;98931.09;2218451;80;21153;-80
2021/04/08 10:27:21;;;;;;;9.27;4.53;;;;;;;6.61;57.27;98976.48;2218918;80;21145;-79
2021/04/08 10:30:22;;;;;;;11.30;6.57;;;;;;;6.35;57.98;98931.63;2218807;80;21158;-81
2021/04/08 10:33:23;;;;;;;18.53;10.97;;;;;;;6.03;58.80;98944.86;2219277;80;21534;-79
2021/04/08 10:36:24;;;;;;;12.70;5.23;;;;;;;5.76;60.55;98953.91;2218168;80;21130;-79
2021/04/08 10:39:25;;;;;;;16.03;6.67;;;;;;;5.40;61.42;98953.16;2218508;80;21106;-80
2021/04/08 10:42:26;;;;;;;13.13;5.30;;;;;;;5.37;61.51;98953.47;2218326;80;21247;-79
2021/04/08 10:45:28;;;;;;;11.37;5.50;;;;;;;5.35;60.46;98954.70;2218925;80;21252;-79
2021/04/08 10:48:30;;;;;;;10.00;5.10;;;;;;;5.52;59.88;98956.98;2217896;80;21411;-80
2021/04/08 10:51:31;;;;;;;14.07;4.77;;;;;;;5.69;60.91;98951.53;2210361;81;21559;-78
2021/04/08 10:54:32;;;;;;;12.27;5.67;;;;;;;5.97;60.46;98948.56;2210799;81;21150;-79
2021/04/08 10:57:33;;;;;;;13.53;4.70;;;;;;;6.03;59.43;98952.64;2211122;81;21150;-79
2021/04/08 11:00:34;;;;;;;14.23;5.13;;;;;;;5.89;57.77;98961.66;2210545;81;21193;-78
2021/04/08 11:03:35;;;;;;;10.87;4.83;;;;;;;5.81;57.88;98958.81;2210817;81;21181;-80
2021/04/08 11:06:36;;;;;;;11.77;4.67;;;;;;;5.99;57.88;98960.73;2211965;81;21269;-80
2021/04/08 11:09:37;;;;;;;9.77;4.57;;;;;;;6.18;57.41;98965.23;2211954;81;21272;-80
2021/04/08 11:12:39;;;;;;;11.00;5.77;;;;;;;6.44;55.76;98956.94;2212063;81;21156;-79
2021/04/08 11:15:42;;;;;;;15.90;6.23;;;;;;;6.80;56.40;98948.93;2211626;81;21177;-80
2021/04/08 11:18:43;;;;;;;14.93;7.00;;;;;;;7.21;54.86;98953.99;2211922;81;21146;-80
2021/04/08 11:21:44;;;;;;;8.77;4.10;;;;;;;7.63;54.12;98962.02;2211327;81;21553;-79
2021/04/08 11:24:45;;;;;;;9.97;4.80;;;;;;;7.95;52.36;98959.36;2211302;81;21153;-80
2021/04/08 11:27:46;;;;;;;7.40;4.20;;;;;;;7.84;50.44;98957.80;2212076;81;21118;-81
2021/04/08 11:30:47;;;;;;;10.87;4.03;;;;;;;7.92;50.51;98956.69;2211982;81;21170;-80
2021/04/08 11:33:48;;;;;;;9.57;4.80;;;;;;;7.92;49.85;98953.67;2211692;81;21276;-80
2021/04/08 11:36:49;;;;;;;15.27;7.70;;;;;;;7.78;50.22;98954.14;2211257;81;21130;-82
2021/04/08 11:39:51;;;;;;;6.37;3.73;;;;;;;7.61;50.05;98960.22;2211337;81;21130;-81
2021/04/08 11:42:53;;;;;;;16.83;10.20;;;;;;;7.39;48.53;98966.58;2211086;81;21182;-80
2021/04/08 11:45:54;;;;;;;9.10;4.67;;;;;;;7.25;48.19;98967.94;2211565;80;21118;-80
2021/04/08 11:48:55;;;;;;;11.10;4.10;;;;;;;6.98;49.89;98966.34;2211907;80;21543;-79
2021/04/08 11:51:56;;;;;;;8.43;3.90;;;;;;;6.87;49.98;98978.11;2219415;80;21236;-80
2021/04/08 11:54:58;;;;;;;10.30;5.23;;;;;;;6.63;49.96;98969.62;2218922;80;21510;-78
2021/04/08 11:57:59;;;;;;;13.53;5.77;;;;;;;6.34;51.51;98972.64;2218571;80;21110;-80
2021/04/08 12:01:00;;;;;;;14.17;5.50;;;;;;;6.43;51.04;98984.59;2219097;80;21279;-80
2021/04/08 12:04:01;;;;;;;9.97;5.03;;;;;;;6.26;51.51;98985.78;2219194;80;21102;-78
2021/04/08 12:07:02;;;;;;;9.87;4.17;;;;;;;6.21;52.44;98983.05;2217935;80;21444;-81
2021/04/08 12:10:03;;;;;;;6.93;4.40;;;;;;;6.33;51.99;98985.14;2218303;80;21141;-80
2021/04/08 12:13:05;;;;;;;13.30;4.83;;;;;;;6.68;52.12;98984.90;2218089;80;21456;-82
2021/04/08 12:16:06;;;;;;;7.77;4.43;;;;;;;7.12;50.94;98986.61;2218450;80;21263;-80
2021/04/08 12:19:07;;;;;;;7.73;3.97;;;;;;;7.63;49.19;98982.80;2218275;80;21134;-80
2021/04/08 12:22:09;;;;;;;9.83;3.97;;;;;;;7.81;47.21;98985.44;2217699;80;21304;-79
2021/04/08 12:25:10;;;;;;;10.30;4.70;;;;;;;7.77;48.01;98990.06;2217663;80;21141;-79
2021/04/08 12:28:11;;;;;;;6.53;3.53;;;;;;;7.49;48.45;99003.64;2217266;80;21260;-79
2021/04/08 12:31:12;;;;;;;3.73;2.70;;;;;;;7.04;49.93;99017.55;2217399;80;21296;-79
2021/04/08 12:34:13;;;;;;;5.50;2.87;;;;;;;6.79;47.68;99025.42;2217786;80;21399;-80
2021/04/08 12:37:14;;;;;;;4.07;2.77;;;;;;;6.25;49.67;99029.39;2217574;80;21547;-78
2021/04/08 12:40:15;;;;;;;5.37;3.00;;;;;;;6.25;49.67;99029.39;2217148;80;21443;-80
2021/04/08 12:43:16;;;;;;;5.90;3.47;;;;;;;6.39;50.36;99028.98;2217443;80;21292;-77
2021/04/08 12:46:17;;;;;;;7.00;3.83;;;;;;;6.77;51.34;99021.91;2217466;80;21261;-80
2021/04/08 12:49:18;;;;;;;7.73;3.53;;;;;;;6.93;49.92;99034.08;2217673;80;21150;-80
2021/04/08 12:52:19;;;;;;;5.33;3.07;;;;;;;6.96;49.00;99029.01;2217372;80;21526;-79
2021/04/08 12:55:20;;;;;;;5.57;3.57;;;;;;;6.93;49.43;99023.70;2217494;80;21133;-79
2021/04/08 12:58:22;;;;;;;9.10;4.90;;;;;;;7.27;48.82;99022.96;2217720;80;21142;-80
2021/04/08 13:01:23;;;;;;;9.47;4.60;;;;;;;7.60;48.15;99020.39;2217680;80;21161;-81
2021/04/08 13:04:24;;;;;;;6.97;3.77;;;;;;;7.94;48.15;99012.19;2217751;80;21534;-81
2021/04/08 13:07:25;;;;;;;6.67;3.87;;;;;;;7.83;46.36;99029.23;2217684;80;21114;-79
2021/04/08 13:10:26;;;;;;;8.17;4.70;;;;;;;7.44;47.74;99022.12;2217551;80;21146;-80
2021/04/08 13:13:27;;;;;;;7.73;4.73;;;;;;;7.11;48.94;99031.58;2217825;80;21144;-80
2021/04/08 13:16:28;;;;;;;8.30;5.40;;;;;;;6.60;51.26;99053.83;2217873;80;21110;-79
2021/04/08 13:19:29;;;;;;;12.47;6.13;;;;;;;6.60;51.26;99053.83;2217324;80;21139;-82
2021/04/08 13:22:30;;;;;;;7.00;3.90;;;;;;;6.25;54.06;99066.56;2217735;80;21559;-80
2021/04/08 13:25:32;;;;;;;10.97;6.23;;;;;;;6.05;55.25;99054.63;2217814;80;21149;-81
2021/04/08 13:28:33;;;;;;;32.90;15.50;;;;;;;6.14;55.80;99061.45;2218055;80;21142;-81
2021/04/08 13:31:34;;;;;;;19.00;10.60;;;;;;;6.59;57.21;99063.31;2218256;80;21157;-80
2021/04/08 13:34:35;;;;;;;15.53;6.90;;;;;;;6.59;57.21;99063.31;2218138;80;21141;-82
2021/04/08 13:37:36;;;;;;;10.60;5.47;;;;;;;6.85;58.56;99067.12;2217814;80;21153;-82
2021/04/08 13:40:37;;;;;;;10.33;5.50;;;;;;;7.11;57.21;99073.11;2218125;80;21408;-82
2021/04/08 13:43:38;;;;;;;13.13;6.93;;;;;;;6.77;57.23;99073.38;2217875;80;21135;-81
2021/04/08 13:46:40;;;;;;;4.60;3.20;;;;;;;6.25;59.51;99100.27;2217891;80;21264;-82
2021/04/08 13:49:41;;;;;;;4.27;2.10;;;;;;;5.63;61.01;99120.08;2216474;80;21169;-81
2021/04/08 13:52:42;;;;;;;2.43;2.20;;;;;;;5.03;62.40;99120.84;2210684;81;21400;-81
2021/04/08 13:55:43;;;;;;;3.37;2.50;;;;;;;4.90;63.97;99130.26;2210585;81;21442;-80
2021/04/08 13:58:46;;;;;;;2.97;2.63;;;;;;;4.73;64.87;99139.95;2210803;81;21129;-80
2021/04/08 14:01:47;;;;;;;3.70;2.90;;;;;;;4.19;67.78;99157.53;2210573;81;21138;-80
2021/04/08 14:04:48;;;;;;;6.77;4.40;;;;;;;3.44;70.15;99162.00;2210335;81;21157;-80